sensor_id;sensor_type;location;lat;lon;timestamp;P1;durP1;ratioP1;P2;durP2;ratioP2
16828;SDS011;8531;48.078;11.968;2022-12-29T00:01:58;5.60;;;3.93;;
16828;SDS011;8531;48.078;11.968;2022-12-29T00:04:23;6.13;;;4.03;;
16828;SDS011;8531;48.078;11.968;2022-12-29T00:06:49;7.27;;;4.47;;
16828;SDS011;8531;48.078;11.968;2022-12-29T00:09:15;7.17;;;3.60;;
16828;SDS011;8531;48.078;11.968;2022-12-29T00:11:41;5.73;;;4.40;;
16828;SDS011;8531;48.078;11.968;2022-12-29T00:14:11;5.43;;;3.70;;
16828;SDS011;8531;48.078;11.968;2022-12-29T00:16:56;4.80;;;3.50;;
16828;SDS011;8531;48.078;11.968;2022-12-29T00:19:22;3.50;;;3.00;;
16828;SDS011;8531;48.078;11.968;2022-12-29T00:22:10;4.73;;;3.20;;
16828;SDS011;8531;48.078;11.968;2022-12-29T00:24:56;4.67;;;3.53;;
16828;SDS011;8531;48.078;11.968;2022-12-29T00:27:40;4.37;;;2.90;;
16828;SDS011;8531;48.078;11.968;2022-12-29T00:30:24;5.67;;;3.37;;
16828;SDS011;8531;48.078;11.968;2022-12-29T00:33:09;4.83;;;2.90;;
16828;SDS011;8531;48.078;11.968;2022-12-29T00:35:56;4.60;;;3.40;;
16828;SDS011;8531;48.078;11.968;2022-12-29T00:38:29;3.50;;;2.70;;
16828;SDS011;8531;48.078;11.968;2022-12-29T00:41:16;3.93;;;2.70;;
16828;SDS011;8531;48.078;11.968;2022-12-29T00:43:59;4.63;;;3.20;;
16828;SDS011;8531;48.078;11.968;2022-12-29T00:46:35;4.33;;;2.60;;
16828;SDS011;8531;48.078;11.968;2022-12-29T00:49:02;3.23;;;2.73;;
16828;SDS011;8531;48.078;11.968;2022-12-29T00:51:47;4.03;;;2.43;;
16828;SDS011;8531;48.078;11.968;2022-12-29T00:54:13;4.67;;;2.60;;
16828;SDS011;8531;48.078;11.968;2022-12-29T00:56:39;3.70;;;3.00;;
16828;SDS011;8531;48.078;11.968;2022-12-29T00:59:06;4.17;;;2.57;;
16828;SDS011;8531;48.078;11.968;2022-12-29T01:01:34;5.00;;;2.80;;
16828;SDS011;8531;48.078;11.968;2022-12-29T01:04:00;3.13;;;2.40;;
16828;SDS011;8531;48.078;11.968;2022-12-29T01:06:26;4.60;;;2.83;;
16828;SDS011;8531;48.078;11.968;2022-12-29T01:08:52;3.80;;;2.60;;
16828;SDS011;8531;48.078;11.968;2022-12-29T01:11:36;6.33;;;2.77;;
16828;SDS011;8531;48.078;11.968;2022-12-29T01:14:03;3.80;;;2.53;;
16828;SDS011;8531;48.078;11.968;2022-12-29T01:16:28;4.83;;;2.87;;
16828;SDS011;8531;48.078;11.968;2022-12-29T01:18:54;4.70;;;2.50;;
16828;SDS011;8531;48.078;11.968;2022-12-29T01:21:20;4.17;;;2.40;;
16828;SDS011;8531;48.078;11.968;2022-12-29T01:23:46;3.10;;;2.27;;
16828;SDS011;8531;48.078;11.968;2022-12-29T01:26:12;2.97;;;2.30;;
16828;SDS011;8531;48.078;11.968;2022-12-29T01:28:38;3.10;;;2.27;;
16828;SDS011;8531;48.078;11.968;2022-12-29T01:31:08;8.57;;;7.70;;
16828;SDS011;8531;48.078;11.968;2022-12-29T01:33:34;3.23;;;2.73;;
16828;SDS011;8531;48.078;11.968;2022-12-29T01:36:01;4.27;;;2.33;;
16828;SDS011;8531;48.078;11.968;2022-12-29T01:38:30;4.73;;;2.70;;
16828;SDS011;8531;48.078;11.968;2022-12-29T01:40:56;3.43;;;2.63;;
16828;SDS011;8531;48.078;11.968;2022-12-29T01:43:37;4.43;;;2.73;;
16828;SDS011;8531;48.078;11.968;2022-12-29T01:46:04;4.33;;;2.93;;
16828;SDS011;8531;48.078;11.968;2022-12-29T01:48:38;3.77;;;2.53;;
16828;SDS011;8531;48.078;11.968;2022-12-29T01:51:04;4.73;;;2.40;;
16828;SDS011;8531;48.078;11.968;2022-12-29T01:53:30;3.80;;;2.43;;
16828;SDS011;8531;48.078;11.968;2022-12-29T01:55:59;4.60;;;2.57;;
16828;SDS011;8531;48.078;11.968;2022-12-29T01:58:30;3.60;;;2.67;;
16828;SDS011;8531;48.078;11.968;2022-12-29T02:00:58;2.37;;;2.00;;
16828;SDS011;8531;48.078;11.968;2022-12-29T02:03:24;4.07;;;2.53;;
16828;SDS011;8531;48.078;11.968;2022-12-29T02:05:55;3.13;;;2.13;;
16828;SDS011;8531;48.078;11.968;2022-12-29T02:08:25;2.63;;;1.90;;
16828;SDS011;8531;48.078;11.968;2022-12-29T02:10:53;3.30;;;2.37;;
16828;SDS011;8531;48.078;11.968;2022-12-29T02:13:20;4.40;;;2.77;;
16828;SDS011;8531;48.078;11.968;2022-12-29T02:16:04;11.47;;;2.60;;
16828;SDS011;8531;48.078;11.968;2022-12-29T02:18:56;2.40;;;2.13;;
16828;SDS011;8531;48.078;11.968;2022-12-29T02:27:38;4.77;;;2.43;;
16828;SDS011;8531;48.078;11.968;2022-12-29T02:33:21;3.37;;;2.30;;
16828;SDS011;8531;48.078;11.968;2022-12-29T02:36:07;2.67;;;2.00;;
16828;SDS011;8531;48.078;11.968;2022-12-29T02:50:06;2.90;;;1.93;;
16828;SDS011;8531;48.078;11.968;2022-12-29T02:52:54;3.27;;;2.30;;
16828;SDS011;8531;48.078;11.968;2022-12-29T02:55:26;3.07;;;2.53;;
16828;SDS011;8531;48.078;11.968;2022-12-29T03:00:41;3.00;;;2.47;;
16828;SDS011;8531;48.078;11.968;2022-12-29T03:11:27;3.97;;;2.10;;
16828;SDS011;8531;48.078;11.968;2022-12-29T03:17:26;4.33;;;2.10;;
16828;SDS011;8531;48.078;11.968;2022-12-29T03:20:07;2.10;;;1.77;;
16828;SDS011;8531;48.078;11.968;2022-12-29T03:22:36;3.27;;;2.10;;
16828;SDS011;8531;48.078;11.968;2022-12-29T03:25:15;3.47;;;2.40;;
16828;SDS011;8531;48.078;11.968;2022-12-29T03:27:49;4.13;;;2.20;;
16828;SDS011;8531;48.078;11.968;2022-12-29T03:30:18;2.83;;;2.13;;
16828;SDS011;8531;48.078;11.968;2022-12-29T03:32:49;2.17;;;1.70;;
16828;SDS011;8531;48.078;11.968;2022-12-29T03:35:19;2.60;;;2.07;;
16828;SDS011;8531;48.078;11.968;2022-12-29T03:37:52;3.17;;;2.40;;
16828;SDS011;8531;48.078;11.968;2022-12-29T03:40:39;2.70;;;2.10;;
16828;SDS011;8531;48.078;11.968;2022-12-29T03:43:12;2.43;;;1.77;;
16828;SDS011;8531;48.078;11.968;2022-12-29T03:45:38;3.87;;;2.40;;
16828;SDS011;8531;48.078;11.968;2022-12-29T03:48:04;3.93;;;2.40;;
16828;SDS011;8531;48.078;11.968;2022-12-29T03:50:30;4.23;;;2.07;;
16828;SDS011;8531;48.078;11.968;2022-12-29T03:52:55;3.47;;;1.90;;
16828;SDS011;8531;48.078;11.968;2022-12-29T03:55:21;2.87;;;2.00;;
16828;SDS011;8531;48.078;11.968;2022-12-29T03:57:47;3.13;;;2.30;;
16828;SDS011;8531;48.078;11.968;2022-12-29T04:00:12;2.77;;;2.10;;
16828;SDS011;8531;48.078;11.968;2022-12-29T04:02:38;2.83;;;1.90;;
16828;SDS011;8531;48.078;11.968;2022-12-29T04:05:04;3.03;;;2.17;;
16828;SDS011;8531;48.078;11.968;2022-12-29T04:07:30;2.23;;;1.90;;
16828;SDS011;8531;48.078;11.968;2022-12-29T04:09:56;3.23;;;2.23;;
16828;SDS011;8531;48.078;11.968;2022-12-29T04:12:21;3.63;;;2.00;;
16828;SDS011;8531;48.078;11.968;2022-12-29T04:14:47;5.77;;;2.93;;
16828;SDS011;8531;48.078;11.968;2022-12-29T04:17:13;4.97;;;2.40;;
16828;SDS011;8531;48.078;11.968;2022-12-29T04:19:38;2.37;;;2.00;;
16828;SDS011;8531;48.078;11.968;2022-12-29T04:22:04;3.67;;;2.30;;
16828;SDS011;8531;48.078;11.968;2022-12-29T04:24:30;3.10;;;2.17;;
16828;SDS011;8531;48.078;11.968;2022-12-29T04:26:55;2.70;;;1.90;;
16828;SDS011;8531;48.078;11.968;2022-12-29T04:29:21;2.00;;;1.60;;
16828;SDS011;8531;48.078;11.968;2022-12-29T04:31:47;2.60;;;1.70;;
16828;SDS011;8531;48.078;11.968;2022-12-29T04:34:12;3.07;;;1.90;;
16828;SDS011;8531;48.078;11.968;2022-12-29T04:36:38;3.63;;;2.27;;
16828;SDS011;8531;48.078;11.968;2022-12-29T04:39:07;2.53;;;1.90;;
16828;SDS011;8531;48.078;11.968;2022-12-29T04:41:32;3.10;;;2.30;;
16828;SDS011;8531;48.078;11.968;2022-12-29T04:43:58;5.63;;;1.93;;
16828;SDS011;8531;48.078;11.968;2022-12-29T04:46:24;4.53;;;2.07;;
16828;SDS011;8531;48.078;11.968;2022-12-29T04:48:49;3.50;;;2.10;;
16828;SDS011;8531;48.078;11.968;2022-12-29T04:51:15;1.87;;;1.57;;
16828;SDS011;8531;48.078;11.968;2022-12-29T04:53:41;4.63;;;1.93;;
16828;SDS011;8531;48.078;11.968;2022-12-29T04:56:06;2.30;;;1.80;;
16828;SDS011;8531;48.078;11.968;2022-12-29T04:58:33;3.67;;;2.00;;
16828;SDS011;8531;48.078;11.968;2022-12-29T05:00:58;2.03;;;1.47;;
16828;SDS011;8531;48.078;11.968;2022-12-29T05:03:24;2.37;;;1.77;;
16828;SDS011;8531;48.078;11.968;2022-12-29T05:05:52;5.83;;;2.60;;
16828;SDS011;8531;48.078;11.968;2022-12-29T05:08:19;3.57;;;2.17;;
16828;SDS011;8531;48.078;11.968;2022-12-29T05:10:45;2.97;;;1.90;;
16828;SDS011;8531;48.078;11.968;2022-12-29T05:13:11;3.33;;;2.23;;
16828;SDS011;8531;48.078;11.968;2022-12-29T05:15:36;3.20;;;1.97;;
16828;SDS011;8531;48.078;11.968;2022-12-29T05:18:02;4.23;;;2.20;;
16828;SDS011;8531;48.078;11.968;2022-12-29T05:20:28;6.53;;;2.47;;
16828;SDS011;8531;48.078;11.968;2022-12-29T05:22:53;2.60;;;2.07;;
16828;SDS011;8531;48.078;11.968;2022-12-29T05:25:19;3.17;;;2.13;;
16828;SDS011;8531;48.078;11.968;2022-12-29T05:27:44;18.03;;;8.30;;
16828;SDS011;8531;48.078;11.968;2022-12-29T05:30:10;9.00;;;4.80;;
16828;SDS011;8531;48.078;11.968;2022-12-29T05:32:36;6.40;;;3.27;;
16828;SDS011;8531;48.078;11.968;2022-12-29T05:35:02;5.27;;;1.80;;
16828;SDS011;8531;48.078;11.968;2022-12-29T05:37:28;1.97;;;1.50;;
16828;SDS011;8531;48.078;11.968;2022-12-29T05:39:54;3.33;;;1.80;;
16828;SDS011;8531;48.078;11.968;2022-12-29T05:42:19;2.43;;;1.50;;
16828;SDS011;8531;48.078;11.968;2022-12-29T05:44:45;3.80;;;1.70;;
16828;SDS011;8531;48.078;11.968;2022-12-29T05:47:11;5.10;;;1.80;;
16828;SDS011;8531;48.078;11.968;2022-12-29T05:49:36;2.77;;;1.67;;
16828;SDS011;8531;48.078;11.968;2022-12-29T05:52:02;4.60;;;2.03;;
16828;SDS011;8531;48.078;11.968;2022-12-29T05:54:28;3.17;;;1.63;;
16828;SDS011;8531;48.078;11.968;2022-12-29T05:56:53;2.30;;;1.90;;
16828;SDS011;8531;48.078;11.968;2022-12-29T05:59:19;2.83;;;1.40;;
16828;SDS011;8531;48.078;11.968;2022-12-29T06:01:45;2.10;;;1.40;;
16828;SDS011;8531;48.078;11.968;2022-12-29T06:04:10;2.23;;;1.40;;
16828;SDS011;8531;48.078;11.968;2022-12-29T06:06:36;2.30;;;1.87;;
16828;SDS011;8531;48.078;11.968;2022-12-29T06:09:02;2.23;;;1.70;;
16828;SDS011;8531;48.078;11.968;2022-12-29T06:11:27;5.23;;;1.77;;
16828;SDS011;8531;48.078;11.968;2022-12-29T06:13:53;3.77;;;1.80;;
16828;SDS011;8531;48.078;11.968;2022-12-29T06:16:19;3.57;;;1.43;;
16828;SDS011;8531;48.078;11.968;2022-12-29T06:18:44;5.30;;;1.87;;
16828;SDS011;8531;48.078;11.968;2022-12-29T06:21:10;4.23;;;1.80;;
16828;SDS011;8531;48.078;11.968;2022-12-29T06:23:36;3.97;;;1.80;;
16828;SDS011;8531;48.078;11.968;2022-12-29T06:26:01;1.83;;;1.40;;
16828;SDS011;8531;48.078;11.968;2022-12-29T06:28:27;3.37;;;2.00;;
16828;SDS011;8531;48.078;11.968;2022-12-29T06:30:53;2.37;;;1.83;;
16828;SDS011;8531;48.078;11.968;2022-12-29T06:33:18;3.53;;;1.80;;
16828;SDS011;8531;48.078;11.968;2022-12-29T06:35:44;3.30;;;1.90;;
16828;SDS011;8531;48.078;11.968;2022-12-29T06:38:10;5.07;;;2.57;;
16828;SDS011;8531;48.078;11.968;2022-12-29T06:40:36;5.43;;;2.23;;
16828;SDS011;8531;48.078;11.968;2022-12-29T06:43:02;5.90;;;3.37;;
16828;SDS011;8531;48.078;11.968;2022-12-29T06:45:27;7.33;;;3.93;;
16828;SDS011;8531;48.078;11.968;2022-12-29T06:47:53;5.87;;;2.10;;
16828;SDS011;8531;48.078;11.968;2022-12-29T06:50:19;2.40;;;1.83;;
16828;SDS011;8531;48.078;11.968;2022-12-29T06:52:44;3.53;;;2.07;;
16828;SDS011;8531;48.078;11.968;2022-12-29T06:55:10;8.33;;;5.03;;
16828;SDS011;8531;48.078;11.968;2022-12-29T06:57:36;5.70;;;4.03;;
16828;SDS011;8531;48.078;11.968;2022-12-29T07:00:02;5.43;;;2.70;;
16828;SDS011;8531;48.078;11.968;2022-12-29T07:02:29;3.57;;;2.10;;
16828;SDS011;8531;48.078;11.968;2022-12-29T07:04:55;2.60;;;1.80;;
16828;SDS011;8531;48.078;11.968;2022-12-29T07:07:21;6.03;;;3.57;;
16828;SDS011;8531;48.078;11.968;2022-12-29T07:09:47;3.50;;;2.07;;
16828;SDS011;8531;48.078;11.968;2022-12-29T07:12:12;3.43;;;1.97;;
16828;SDS011;8531;48.078;11.968;2022-12-29T07:14:38;2.60;;;1.85;;
16828;SDS011;8531;48.078;11.968;2022-12-29T07:17:04;3.93;;;1.97;;
16828;SDS011;8531;48.078;11.968;2022-12-29T07:19:31;5.83;;;3.73;;
16828;SDS011;8531;48.078;11.968;2022-12-29T07:21:57;6.20;;;2.22;;
16828;SDS011;8531;48.078;11.968;2022-12-29T07:24:23;3.33;;;2.57;;
16828;SDS011;8531;48.078;11.968;2022-12-29T07:26:50;5.90;;;2.50;;
16828;SDS011;8531;48.078;11.968;2022-12-29T07:29:16;4.57;;;2.50;;
16828;SDS011;8531;48.078;11.968;2022-12-29T07:31:42;3.73;;;2.80;;
16828;SDS011;8531;48.078;11.968;2022-12-29T07:34:08;4.57;;;2.40;;
16828;SDS011;8531;48.078;11.968;2022-12-29T07:36:34;3.37;;;1.90;;
16828;SDS011;8531;48.078;11.968;2022-12-29T07:39:00;6.30;;;2.17;;
16828;SDS011;8531;48.078;11.968;2022-12-29T07:41:25;2.97;;;1.90;;
16828;SDS011;8531;48.078;11.968;2022-12-29T07:43:51;5.87;;;2.53;;
16828;SDS011;8531;48.078;11.968;2022-12-29T07:46:17;6.13;;;3.37;;
16828;SDS011;8531;48.078;11.968;2022-12-29T07:48:42;3.33;;;2.10;;
16828;SDS011;8531;48.078;11.968;2022-12-29T07:51:08;2.53;;;1.60;;
16828;SDS011;8531;48.078;11.968;2022-12-29T07:53:34;3.28;;;1.73;;
16828;SDS011;8531;48.078;11.968;2022-12-29T07:56:00;2.70;;;1.70;;
16828;SDS011;8531;48.078;11.968;2022-12-29T07:58:26;1.70;;;1.20;;
16828;SDS011;8531;48.078;11.968;2022-12-29T08:00:54;3.10;;;1.38;;
16828;SDS011;8531;48.078;11.968;2022-12-29T08:03:21;2.92;;;1.23;;
16828;SDS011;8531;48.078;11.968;2022-12-29T08:05:47;13.57;;;2.63;;
16828;SDS011;8531;48.078;11.968;2022-12-29T08:08:13;4.82;;;2.28;;
16828;SDS011;8531;48.078;11.968;2022-12-29T08:10:38;4.03;;;2.63;;
16828;SDS011;8531;48.078;11.968;2022-12-29T08:13:04;5.03;;;3.08;;
16828;SDS011;8531;48.078;11.968;2022-12-29T08:15:30;3.42;;;2.55;;
16828;SDS011;8531;48.078;11.968;2022-12-29T08:17:55;3.45;;;2.35;;
16828;SDS011;8531;48.078;11.968;2022-12-29T08:20:21;7.03;;;2.85;;
16828;SDS011;8531;48.078;11.968;2022-12-29T08:22:47;8.85;;;3.28;;
16828;SDS011;8531;48.078;11.968;2022-12-29T08:25:12;5.28;;;2.97;;
16828;SDS011;8531;48.078;11.968;2022-12-29T08:27:38;4.85;;;2.83;;
16828;SDS011;8531;48.078;11.968;2022-12-29T08:30:04;8.85;;;2.75;;
16828;SDS011;8531;48.078;11.968;2022-12-29T08:32:30;4.53;;;3.22;;
16828;SDS011;8531;48.078;11.968;2022-12-29T08:34:56;6.18;;;3.78;;
16828;SDS011;8531;48.078;11.968;2022-12-29T08:37:22;3.72;;;2.60;;
16828;SDS011;8531;48.078;11.968;2022-12-29T08:39:47;4.43;;;3.05;;
16828;SDS011;8531;48.078;11.968;2022-12-29T08:42:13;10.32;;;4.45;;
16828;SDS011;8531;48.078;11.968;2022-12-29T08:44:39;9.98;;;4.28;;
16828;SDS011;8531;48.078;11.968;2022-12-29T08:47:04;9.32;;;4.18;;
16828;SDS011;8531;48.078;11.968;2022-12-29T08:49:30;8.68;;;4.07;;
16828;SDS011;8531;48.078;11.968;2022-12-29T08:51:58;6.68;;;2.72;;
16828;SDS011;8531;48.078;11.968;2022-12-29T08:54:24;3.22;;;2.25;;
16828;SDS011;8531;48.078;11.968;2022-12-29T08:56:49;3.95;;;1.83;;
16828;SDS011;8531;48.078;11.968;2022-12-29T08:59:15;3.42;;;1.90;;
16828;SDS011;8531;48.078;11.968;2022-12-29T09:01:41;4.10;;;2.60;;
16828;SDS011;8531;48.078;11.968;2022-12-29T09:04:07;10.77;;;4.10;;
16828;SDS011;8531;48.078;11.968;2022-12-29T09:06:33;8.48;;;3.53;;
16828;SDS011;8531;48.078;11.968;2022-12-29T09:08:59;5.60;;;3.15;;
16828;SDS011;8531;48.078;11.968;2022-12-29T09:11:24;3.60;;;2.13;;
16828;SDS011;8531;48.078;11.968;2022-12-29T09:13:50;3.22;;;1.60;;
16828;SDS011;8531;48.078;11.968;2022-12-29T09:16:17;3.70;;;1.98;;
16828;SDS011;8531;48.078;11.968;2022-12-29T09:18:44;4.97;;;2.33;;
16828;SDS011;8531;48.078;11.968;2022-12-29T09:21:10;3.95;;;2.20;;
16828;SDS011;8531;48.078;11.968;2022-12-29T09:23:36;3.20;;;2.10;;
16828;SDS011;8531;48.078;11.968;2022-12-29T09:26:02;6.50;;;2.42;;
16828;SDS011;8531;48.078;11.968;2022-12-29T09:28:29;3.97;;;2.70;;
16828;SDS011;8531;48.078;11.968;2022-12-29T09:30:55;2.85;;;2.03;;
16828;SDS011;8531;48.078;11.968;2022-12-29T09:33:21;5.15;;;2.45;;
16828;SDS011;8531;48.078;11.968;2022-12-29T09:35:54;3.58;;;2.47;;
16828;SDS011;8531;48.078;11.968;2022-12-29T09:38:21;4.35;;;2.80;;
16828;SDS011;8531;48.078;11.968;2022-12-29T09:41:23;4.97;;;2.80;;
16828;SDS011;8531;48.078;11.968;2022-12-29T09:43:54;3.38;;;2.05;;
16828;SDS011;8531;48.078;11.968;2022-12-29T09:46:35;2.65;;;2.22;;
16828;SDS011;8531;48.078;11.968;2022-12-29T09:51:46;4.07;;;2.17;;
16828;SDS011;8531;48.078;11.968;2022-12-29T09:57:10;4.07;;;1.83;;
16828;SDS011;8531;48.078;11.968;2022-12-29T09:59:46;14.40;;;2.72;;
16828;SDS011;8531;48.078;11.968;2022-12-29T10:02:25;2.97;;;2.22;;
16828;SDS011;8531;48.078;11.968;2022-12-29T10:05:04;3.08;;;1.90;;
16828;SDS011;8531;48.078;11.968;2022-12-29T10:07:47;6.15;;;2.85;;
16828;SDS011;8531;48.078;11.968;2022-12-29T10:16:05;2.97;;;1.85;;
16828;SDS011;8531;48.078;11.968;2022-12-29T10:18:50;2.35;;;1.70;;
16828;SDS011;8531;48.078;11.968;2022-12-29T10:24:10;4.60;;;1.85;;
16828;SDS011;8531;48.078;11.968;2022-12-29T10:26:39;5.70;;;2.30;;
16828;SDS011;8531;48.078;11.968;2022-12-29T10:29:14;4.68;;;2.00;;
16828;SDS011;8531;48.078;11.968;2022-12-29T10:31:56;11.27;;;2.63;;
16828;SDS011;8531;48.078;11.968;2022-12-29T10:34:26;11.60;;;2.65;;
16828;SDS011;8531;48.078;11.968;2022-12-29T10:36:58;5.82;;;2.20;;
16828;SDS011;8531;48.078;11.968;2022-12-29T10:39:30;3.50;;;1.50;;
16828;SDS011;8531;48.078;11.968;2022-12-29T10:42:12;6.95;;;2.17;;
16828;SDS011;8531;48.078;11.968;2022-12-29T10:44:59;3.05;;;1.80;;
16828;SDS011;8531;48.078;11.968;2022-12-29T10:47:27;3.58;;;1.85;;
16828;SDS011;8531;48.078;11.968;2022-12-29T10:49:56;2.47;;;1.92;;
16828;SDS011;8531;48.078;11.968;2022-12-29T10:52:25;4.75;;;1.92;;
16828;SDS011;8531;48.078;11.968;2022-12-29T10:54:57;3.70;;;1.70;;
16828;SDS011;8531;48.078;11.968;2022-12-29T10:57:35;2.97;;;1.83;;
16828;SDS011;8531;48.078;11.968;2022-12-29T11:00:18;4.07;;;1.67;;
16828;SDS011;8531;48.078;11.968;2022-12-29T11:05:52;3.42;;;2.15;;
16828;SDS011;8531;48.078;11.968;2022-12-29T11:08:28;4.15;;;1.90;;
16828;SDS011;8531;48.078;11.968;2022-12-29T11:11:04;6.65;;;3.13;;
16828;SDS011;8531;48.078;11.968;2022-12-29T11:13:33;6.93;;;3.65;;
16828;SDS011;8531;48.078;11.968;2022-12-29T11:16:00;9.57;;;2.88;;
16828;SDS011;8531;48.078;11.968;2022-12-29T11:18:32;4.22;;;2.50;;
16828;SDS011;8531;48.078;11.968;2022-12-29T11:21:02;3.60;;;2.47;;
16828;SDS011;8531;48.078;11.968;2022-12-29T11:23:54;11.57;;;4.38;;
16828;SDS011;8531;48.078;11.968;2022-12-29T11:26:26;5.18;;;1.90;;
16828;SDS011;8531;48.078;11.968;2022-12-29T11:31:30;6.15;;;3.40;;
16828;SDS011;8531;48.078;11.968;2022-12-29T11:33:56;6.45;;;2.10;;
16828;SDS011;8531;48.078;11.968;2022-12-29T11:36:22;5.03;;;2.97;;
16828;SDS011;8531;48.078;11.968;2022-12-29T11:38:50;4.43;;;2.65;;
16828;SDS011;8531;48.078;11.968;2022-12-29T11:41:20;5.63;;;2.63;;
16828;SDS011;8531;48.078;11.968;2022-12-29T11:43:52;3.08;;;2.40;;
16828;SDS011;8531;48.078;11.968;2022-12-29T11:46:22;6.70;;;4.35;;
16828;SDS011;8531;48.078;11.968;2022-12-29T11:48:52;4.88;;;2.83;;
16828;SDS011;8531;48.078;11.968;2022-12-29T11:51:25;5.57;;;2.70;;
16828;SDS011;8531;48.078;11.968;2022-12-29T11:53:55;5.22;;;3.08;;
16828;SDS011;8531;48.078;11.968;2022-12-29T11:56:34;5.68;;;2.15;;
16828;SDS011;8531;48.078;11.968;2022-12-29T11:59:21;6.30;;;3.10;;
16828;SDS011;8531;48.078;11.968;2022-12-29T12:01:52;3.65;;;1.98;;
16828;SDS011;8531;48.078;11.968;2022-12-29T12:04:21;5.05;;;2.10;;
16828;SDS011;8531;48.078;11.968;2022-12-29T12:09:43;3.58;;;2.55;;
16828;SDS011;8531;48.078;11.968;2022-12-29T12:15:02;1.88;;;1.58;;
16828;SDS011;8531;48.078;11.968;2022-12-29T12:18:03;5.72;;;1.95;;
16828;SDS011;8531;48.078;11.968;2022-12-29T12:20:44;3.70;;;1.50;;
16828;SDS011;8531;48.078;11.968;2022-12-29T12:23:36;6.07;;;3.40;;
16828;SDS011;8531;48.078;11.968;2022-12-29T12:26:14;5.88;;;2.80;;
16828;SDS011;8531;48.078;11.968;2022-12-29T12:28:54;2.92;;;1.67;;
16828;SDS011;8531;48.078;11.968;2022-12-29T12:31:57;2.80;;;2.00;;
16828;SDS011;8531;48.078;11.968;2022-12-29T12:34:35;5.60;;;3.03;;
16828;SDS011;8531;48.078;11.968;2022-12-29T12:37:23;6.65;;;3.55;;
16828;SDS011;8531;48.078;11.968;2022-12-29T12:40:15;4.38;;;2.08;;
16828;SDS011;8531;48.078;11.968;2022-12-29T12:43:31;2.47;;;2.00;;
16828;SDS011;8531;48.078;11.968;2022-12-29T13:00:13;8.15;;;2.72;;
16828;SDS011;8531;48.078;11.968;2022-12-29T13:10:53;5.20;;;3.08;;
16828;SDS011;8531;48.078;11.968;2022-12-29T13:16:51;6.65;;;2.97;;
16828;SDS011;8531;48.078;11.968;2022-12-29T13:19:35;4.15;;;1.92;;
16828;SDS011;8531;48.078;11.968;2022-12-29T13:22:53;4.35;;;2.13;;
16828;SDS011;8531;48.078;11.968;2022-12-29T13:28:10;4.20;;;2.30;;
16828;SDS011;8531;48.078;11.968;2022-12-29T13:30:49;6.68;;;2.40;;
16828;SDS011;8531;48.078;11.968;2022-12-29T13:41:35;3.22;;;2.45;;
16828;SDS011;8531;48.078;11.968;2022-12-29T13:44:06;3.20;;;2.17;;
16828;SDS011;8531;48.078;11.968;2022-12-29T13:46:40;5.85;;;2.45;;
16828;SDS011;8531;48.078;11.968;2022-12-29T13:49:17;3.17;;;2.30;;
16828;SDS011;8531;48.078;11.968;2022-12-29T13:51:54;4.30;;;2.33;;
16828;SDS011;8531;48.078;11.968;2022-12-29T13:59:57;4.18;;;2.15;;
16828;SDS011;8531;48.078;11.968;2022-12-29T14:08:03;4.80;;;2.40;;
16828;SDS011;8531;48.078;11.968;2022-12-29T14:13:13;5.72;;;2.65;;
16828;SDS011;8531;48.078;11.968;2022-12-29T14:15:43;7.03;;;2.85;;
16828;SDS011;8531;48.078;11.968;2022-12-29T14:18:11;5.10;;;2.65;;
16828;SDS011;8531;48.078;11.968;2022-12-29T14:20:38;10.00;;;3.10;;
16828;SDS011;8531;48.078;11.968;2022-12-29T14:23:16;4.78;;;2.10;;
16828;SDS011;8531;48.078;11.968;2022-12-29T14:26:00;9.20;;;2.03;;
16828;SDS011;8531;48.078;11.968;2022-12-29T14:28:44;6.95;;;2.13;;
16828;SDS011;8531;48.078;11.968;2022-12-29T14:33:40;9.40;;;2.85;;
16828;SDS011;8531;48.078;11.968;2022-12-29T14:36:36;2.45;;;1.75;;
16828;SDS011;8531;48.078;11.968;2022-12-29T14:39:27;4.50;;;2.35;;
16828;SDS011;8531;48.078;11.968;2022-12-29T14:52:29;3.53;;;2.55;;
16828;SDS011;8531;48.078;11.968;2022-12-29T14:57:27;4.60;;;2.80;;
16828;SDS011;8531;48.078;11.968;2022-12-29T15:00:18;9.35;;;3.03;;
16828;SDS011;8531;48.078;11.968;2022-12-29T15:03:02;14.23;;;3.42;;
16828;SDS011;8531;48.078;11.968;2022-12-29T15:05:40;12.13;;;5.03;;
16828;SDS011;8531;48.078;11.968;2022-12-29T15:08:20;7.93;;;4.15;;
16828;SDS011;8531;48.078;11.968;2022-12-29T15:11:12;10.52;;;4.35;;
16828;SDS011;8531;48.078;11.968;2022-12-29T15:13:41;10.23;;;4.78;;
16828;SDS011;8531;48.078;11.968;2022-12-29T15:18:50;4.60;;;2.70;;
16828;SDS011;8531;48.078;11.968;2022-12-29T15:21:16;3.97;;;2.80;;
16828;SDS011;8531;48.078;11.968;2022-12-29T15:23:45;6.30;;;2.90;;
16828;SDS011;8531;48.078;11.968;2022-12-29T15:26:11;5.55;;;3.25;;
16828;SDS011;8531;48.078;11.968;2022-12-29T15:28:46;13.68;;;5.20;;
16828;SDS011;8531;48.078;11.968;2022-12-29T15:31:13;9.10;;;5.10;;
16828;SDS011;8531;48.078;11.968;2022-12-29T15:33:42;8.82;;;5.10;;
16828;SDS011;8531;48.078;11.968;2022-12-29T15:36:20;7.03;;;4.60;;
16828;SDS011;8531;48.078;11.968;2022-12-29T15:38:47;8.25;;;4.55;;
16828;SDS011;8531;48.078;11.968;2022-12-29T15:44:23;10.68;;;5.97;;
16828;SDS011;8531;48.078;11.968;2022-12-29T15:46:50;9.70;;;4.97;;
16828;SDS011;8531;48.078;11.968;2022-12-29T15:49:17;6.10;;;5.05;;
16828;SDS011;8531;48.078;11.968;2022-12-29T15:51:43;9.38;;;4.75;;
16828;SDS011;8531;48.078;11.968;2022-12-29T15:54:15;5.22;;;3.47;;
16828;SDS011;8531;48.078;11.968;2022-12-29T15:56:43;6.18;;;4.45;;
16828;SDS011;8531;48.078;11.968;2022-12-29T15:59:28;8.80;;;4.80;;
16828;SDS011;8531;48.078;11.968;2022-12-29T16:01:56;39.33;;;23.02;;
16828;SDS011;8531;48.078;11.968;2022-12-29T16:04:23;40.53;;;21.20;;
16828;SDS011;8531;48.078;11.968;2022-12-29T16:06:55;25.02;;;14.65;;
16828;SDS011;8531;48.078;11.968;2022-12-29T16:12:02;7.18;;;4.00;;
16828;SDS011;8531;48.078;11.968;2022-12-29T16:14:41;13.75;;;11.07;;
16828;SDS011;8531;48.078;11.968;2022-12-29T16:17:12;17.02;;;11.98;;
16828;SDS011;8531;48.078;11.968;2022-12-29T16:19:50;17.05;;;11.88;;
16828;SDS011;8531;48.078;11.968;2022-12-29T16:22:29;17.48;;;10.73;;
16828;SDS011;8531;48.078;11.968;2022-12-29T16:25:06;19.77;;;10.25;;
16828;SDS011;8531;48.078;11.968;2022-12-29T16:27:48;10.98;;;8.65;;
16828;SDS011;8531;48.078;11.968;2022-12-29T16:30:23;12.90;;;8.07;;
16828;SDS011;8531;48.078;11.968;2022-12-29T16:32:51;11.93;;;8.63;;
16828;SDS011;8531;48.078;11.968;2022-12-29T16:35:23;10.20;;;7.25;;
16828;SDS011;8531;48.078;11.968;2022-12-29T16:41:01;10.18;;;7.18;;
16828;SDS011;8531;48.078;11.968;2022-12-29T16:43:30;9.30;;;6.78;;
16828;SDS011;8531;48.078;11.968;2022-12-29T16:48:33;8.95;;;6.00;;
16828;SDS011;8531;48.078;11.968;2022-12-29T16:51:19;9.23;;;4.97;;
16828;SDS011;8531;48.078;11.968;2022-12-29T16:53:57;11.30;;;5.10;;
16828;SDS011;8531;48.078;11.968;2022-12-29T16:56:26;7.72;;;5.32;;
16828;SDS011;8531;48.078;11.968;2022-12-29T16:59:39;9.00;;;4.80;;
16828;SDS011;8531;48.078;11.968;2022-12-29T17:01:42;10.80;;;8.40;;
16828;SDS011;8531;48.078;11.968;2022-12-29T17:04:09;11.02;;;7.72;;
16828;SDS011;8531;48.078;11.968;2022-12-29T17:06:36;11.27;;;8.00;;
16828;SDS011;8531;48.078;11.968;2022-12-29T17:09:02;11.48;;;7.97;;
16828;SDS011;8531;48.078;11.968;2022-12-29T17:11:40;15.30;;;9.05;;
16828;SDS011;8531;48.078;11.968;2022-12-29T17:16:53;14.15;;;8.40;;
16828;SDS011;8531;48.078;11.968;2022-12-29T17:19:29;10.18;;;7.18;;
16828;SDS011;8531;48.078;11.968;2022-12-29T17:21:59;9.18;;;7.05;;
16828;SDS011;8531;48.078;11.968;2022-12-29T17:24:25;10.10;;;6.78;;
16828;SDS011;8531;48.078;11.968;2022-12-29T17:26:52;11.30;;;6.25;;
16828;SDS011;8531;48.078;11.968;2022-12-29T17:31:53;9.18;;;6.30;;
16828;SDS011;8531;48.078;11.968;2022-12-29T17:34:19;10.27;;;6.75;;